Time;durP1;ratioP1;P1;durP2;ratioP2;P2;SDS_P1;SDS_P2;PMS_P1;PMS_P2;Temp;Humidity;BMP_temperature;BMP_pressure;BME280_temperature;BME280_humidity;BME280_pressure;Samples;Min_cycle;Max_cycle;Signal;HPM_P1;HPM_P2
2022/01/08 00:01:00;;;;;;;17.20;8.10;;;;;-2.00;97718.80;;;;111733;1241;41477;-66
2022/01/08 00:03:29;;;;;;;26.60;12.50;;;;;-2.00;97716.20;;;;111687;1243;41298;-69
2022/01/08 00:05:58;;;;;;;24.70;11.00;;;;;-2.00;97721.20;;;;111434;1244;41258;-68
2022/01/08 00:08:28;;;;;;;21.00;9.40;;;;;-2.06;97714.80;;;;111707;1242;41145;-66
2022/01/08 00:10:58;;;;;;;19.10;9.70;;;;;-2.10;97718.40;;;;111751;1241;42108;-68
2022/01/08 00:13:27;;;;;;;24.00;11.90;;;;;-2.02;97716.40;;;;111742;1243;41156;-68
2022/01/08 00:15:57;;;;;;;21.50;10.30;;;;;-2.10;97716.40;;;;111440;1244;41986;-71
2022/01/08 00:18:27;;;;;;;19.50;9.60;;;;;-2.18;97709.80;;;;111661;1241;41615;-68
2022/01/08 00:20:57;;;;;;;26.80;14.70;;;;;-2.20;97711.20;;;;111604;1243;41137;-69
2022/01/08 00:23:26;;;;;;;22.00;11.50;;;;;-2.20;97720.00;;;;111768;1241;41510;-69
2022/01/08 00:25:55;;;;;;;20.70;9.80;;;;;-2.20;97712.80;;;;111704;1241;42361;-66
2022/01/08 00:28:26;;;;;;;20.90;12.30;;;;;-2.20;97713.00;;;;111824;1241;42264;-68
2022/01/08 00:30:55;;;;;;;27.70;13.50;;;;;-2.20;97712.60;;;;111928;1242;41127;-68
2022/01/08 00:33:24;;;;;;;21.40;10.80;;;;;-2.26;97712.80;;;;111518;1244;41242;-69
2022/01/08 00:35:54;;;;;;;24.30;11.50;;;;;-2.30;97715.00;;;;111521;1243;41263;-68
2022/01/08 00:38:24;;;;;;;21.00;10.10;;;;;-2.30;97709.60;;;;111758;1241;41527;-67
2022/01/08 00:40:53;;;;;;;18.50;8.60;;;;;-2.30;97706.60;;;;111679;1241;41234;-66
2022/01/08 00:43:23;;;;;;;18.30;9.20;;;;;-2.30;97701.00;;;;111283;1244;42165;-68
2022/01/08 00:45:53;;;;;;;26.30;12.50;;;;;-2.30;97703.40;;;;111734;1241;41161;-68
2022/01/08 00:48:22;;;;;;;22.50;11.50;;;;;-2.30;97718.20;;;;111697;1243;41255;-69
2022/01/08 00:50:52;;;;;;;24.50;10.40;;;;;-2.40;97710.80;;;;111776;1241;42243;-68
2022/01/08 00:53:25;;;;;;;21.20;10.30;;;;;-2.40;97708.40;;;;111795;1241;41138;-69
2022/01/08 00:55:55;;;;;;;21.10;10.80;;;;;-2.40;97709.40;;;;111589;1244;41122;-69
2022/01/08 00:58:24;;;;;;;22.60;10.40;;;;;-2.40;97709.20;;;;111847;1241;41428;-69
2022/01/08 01:00:54;;;;;;;20.80;10.00;;;;;-2.44;97709.20;;;;111812;1241;41707;-69
2022/01/08 01:03:24;;;;;;;23.30;11.20;;;;;-2.48;97708.80;;;;111737;1241;41351;-69
2022/01/08 01:05:53;;;;;;;19.00;9.40;;;;;-2.46;97710.60;;;;111978;1241;41694;-70
2022/01/08 01:08:22;;;;;;;22.60;9.80;;;;;-2.48;97703.20;;;;111764;1243;42180;-70
2022/01/08 01:10:53;;;;;;;22.00;8.80;;;;;-2.44;97705.00;;;;111808;1241;41246;-69
2022/01/08 01:13:22;;;;;;;20.70;9.80;;;;;-2.40;97702.20;;;;111696;1241;42699;-69
2022/01/08 01:15:52;;;;;;;21.50;9.50;;;;;-2.40;97690.00;;;;111668;1241;41647;-68
2022/01/08 01:18:22;;;;;;;20.90;9.60;;;;;-2.32;97689.40;;;;111434;1244;42167;-69
2022/01/08 01:20:51;;;;;;;20.60;9.20;;;;;-2.30;97687.20;;;;111733;1241;41247;-69
2022/01/08 01:23:29;;;;;;;21.00;9.90;;;;;-2.30;97681.20;;;;111590;1241;42535;-69
2022/01/08 01:26:03;;;;;;;21.60;11.00;;;;;-2.20;97676.20;;;;111773;1243;41602;-71
2022/01/08 01:42:16;;;;;;;22.70;12.60;;;;;-1.90;97666.40;;;;111845;1241;41321;-69
2022/01/08 01:47:33;;;;;;;22.50;11.20;;;;;-1.90;97658.60;;;;111629;1241;41272;-70
2022/01/08 01:50:06;;;;;;;20.30;10.60;;;;;-1.90;97651.80;;;;111892;1241;41284;-70
2022/01/08 01:52:37;;;;;;;25.50;12.50;;;;;-1.90;97648.20;;;;111787;1241;41256;-69
2022/01/08 01:55:07;;;;;;;23.30;12.00;;;;;-1.80;97649.40;;;;111768;1241;41595;-69
2022/01/08 01:57:37;;;;;;;22.60;11.60;;;;;-1.80;97649.40;;;;111700;1241;41145;-69
2022/01/08 02:00:08;;;;;;;22.70;11.10;;;;;-1.78;97640.60;;;;111718;1241;41678;-72
2022/01/08 02:02:41;;;;;;;20.50;9.90;;;;;-1.70;97637.20;;;;111748;1241;41720;-72
2022/01/08 02:05:11;;;;;;;19.70;8.90;;;;;-1.70;97635.60;;;;111812;1243;41234;-69
2022/01/08 02:07:41;;;;;;;15.80;7.80;;;;;-1.66;97636.60;;;;111727;1242;41768;-71
2022/01/08 02:10:11;;;;;;;16.80;7.80;;;;;-1.60;97632.80;;;;111803;1242;41138;-69
2022/01/08 02:12:40;;;;;;;15.40;7.80;;;;;-1.60;97621.20;;;;111844;1242;41263;-71
2022/01/08 02:15:10;;;;;;;16.30;7.60;;;;;-1.50;97620.20;;;;111913;1241;41435;-70
2022/01/08 02:17:41;;;;;;;17.20;7.60;;;;;-1.50;97619.00;;;;111874;1241;41137;-69
2022/01/08 02:20:12;;;;;;;14.50;7.20;;;;;-1.50;97612.40;;;;111822;1241;41727;-70
2022/01/08 02:22:42;;;;;;;14.80;6.90;;;;;-1.40;97609.60;;;;111870;1241;41137;-71
2022/01/08 02:25:12;;;;;;;15.90;7.30;;;;;-1.40;97607.60;;;;111824;1241;41249;-70
2022/01/08 02:27:43;;;;;;;15.90;8.10;;;;;-1.36;97611.40;;;;111821;1241;41224;-69
2022/01/08 02:30:14;;;;;;;15.80;7.50;;;;;-1.30;97611.60;;;;111858;1242;41264;-69
2022/01/08 02:32:45;;;;;;;13.90;6.60;;;;;-1.30;97615.20;;;;111780;1241;41508;-67
2022/01/08 02:35:21;;;;;;;15.40;6.20;;;;;-1.30;97613.20;;;;111807;1241;41253;-69
2022/01/08 02:37:52;;;;;;;15.40;6.70;;;;;-1.30;97617.60;;;;111846;1241;41624;-68
2022/01/08 02:40:23;;;;;;;16.00;8.10;;;;;-1.30;97614.00;;;;111768;1241;42369;-69
2022/01/08 02:43:01;;;;;;;18.10;8.60;;;;;-1.26;97613.20;;;;111863;1241;41703;-69
2022/01/08 02:45:31;;;;;;;18.80;9.90;;;;;-1.28;97605.20;;;;111850;1241;41126;-69
2022/01/08 02:48:01;;;;;;;20.60;9.90;;;;;-1.28;97597.80;;;;111835;1241;41136;-68
2022/01/08 02:50:31;;;;;;;19.10;9.10;;;;;-1.30;97591.60;;;;111843;1241;41145;-69
2022/01/08 02:53:01;;;;;;;18.60;9.40;;;;;-1.30;97597.60;;;;111777;1241;41134;-69
2022/01/08 02:55:32;;;;;;;24.80;11.20;;;;;-1.28;97598.40;;;;111771;1242;42065;-69
2022/01/08 02:58:02;;;;;;;21.90;10.50;;;;;-1.30;97593.40;;;;111841;1241;42370;-69
2022/01/08 03:00:32;;;;;;;20.70;9.80;;;;;-1.30;97593.20;;;;111786;1241;41976;-68
2022/01/08 03:03:03;;;;;;;19.20;9.90;;;;;-1.22;97591.00;;;;111747;1242;41257;-69
2022/01/08 03:05:32;;;;;;;20.30;9.10;;;;;-1.20;97592.80;;;;111610;1241;42869;-69
2022/01/08 03:08:02;;;;;;;19.40;9.80;;;;;-1.16;97581.40;;;;111738;1241;41206;-69
2022/01/08 03:10:32;;;;;;;18.50;8.90;;;;;-1.10;97592.40;;;;111590;1243;42090;-69
2022/01/08 03:13:04;;;;;;;19.60;9.60;;;;;-1.10;97596.00;;;;111654;1243;41136;-69
2022/01/08 03:15:37;;;;;;;20.00;9.80;;;;;-1.04;97602.60;;;;111578;1244;41452;-67
2022/01/08 03:18:07;;;;;;;21.00;9.90;;;;;-1.00;97595.20;;;;111540;1243;41454;-67
2022/01/08 03:20:46;;;;;;;20.70;9.90;;;;;-1.00;97591.80;;;;111819;1241;41137;-68
2022/01/08 03:23:17;;;;;;;17.50;9.10;;;;;-1.00;97590.40;;;;111797;1241;41147;-68
2022/01/08 03:25:48;;;;;;;18.70;8.20;;;;;-1.00;97584.40;;;;111796;1241;41239;-67
2022/01/08 03:28:17;;;;;;;20.10;9.50;;;;;-1.00;97581.80;;;;111781;1241;41898;-67
2022/01/08 03:30:52;;;;;;;21.90;10.60;;;;;-0.90;97581.00;;;;111759;1241;41584;-68
2022/01/08 03:33:21;;;;;;;20.80;9.90;;;;;-0.90;97579.00;;;;111791;1241;41240;-64
2022/01/08 03:35:52;;;;;;;21.00;9.90;;;;;-0.90;97573.80;;;;111774;1241;41252;-68
2022/01/08 03:38:23;;;;;;;21.20;11.10;;;;;-0.80;97573.60;;;;111772;1241;42216;-65
2022/01/08 03:40:58;;;;;;;21.10;10.70;;;;;-0.80;97573.00;;;;111843;1241;42357;-68
2022/01/08 03:43:28;;;;;;;21.60;11.20;;;;;-0.80;97572.60;;;;111860;1241;41600;-68
2022/01/08 03:46:00;;;;;;;22.70;11.40;;;;;-0.80;97569.40;;;;111551;1244;42162;-68
2022/01/08 03:48:44;;;;;;;23.40;12.10;;;;;-0.80;97566.80;;;;111815;1241;41870;-69
2022/01/08 03:51:15;;;;;;;19.60;10.50;;;;;-0.70;97574.80;;;;111778;1241;41179;-68
2022/01/08 03:53:44;;;;;;;18.80;9.20;;;;;-0.80;97572.40;;;;111811;1241;41255;-69
2022/01/08 03:56:14;;;;;;;25.60;11.20;;;;;-0.74;97565.40;;;;111821;1241;42352;-68
2022/01/08 03:58:44;;;;;;;24.90;11.60;;;;;-0.70;97570.80;;;;111796;1243;41185;-68
2022/01/08 04:01:15;;;;;;;21.30;10.30;;;;;-0.70;97569.80;;;;111700;1241;41147;-68
2022/01/08 04:03:47;;;;;;;18.90;9.00;;;;;-0.68;97562.20;;;;111443;1241;42307;-71
2022/01/08 04:06:18;;;;;;;19.70;9.60;;;;;-0.60;97553.80;;;;111715;1241;42209;-70
2022/01/08 04:08:48;;;;;;;17.90;8.70;;;;;-0.60;97550.40;;;;111500;1243;41294;-70
2022/01/08 04:11:18;;;;;;;18.70;9.20;;;;;-0.56;97549.60;;;;111820;1241;41203;-70
2022/01/08 04:13:47;;;;;;;23.30;11.50;;;;;-0.50;97549.60;;;;111797;1241;41137;-67
2022/01/08 04:16:23;;;;;;;31.50;13.50;;;;;-0.50;97541.60;;;;111800;1241;41360;-68
2022/01/08 04:18:54;;;;;;;27.60;12.70;;;;;-0.50;97542.20;;;;111812;1241;42232;-68
2022/01/08 04:24:04;;;;;;;32.10;15.20;;;;;-0.50;97526.80;;;;111778;1242;41156;-68
2022/01/08 04:26:33;;;;;;;28.30;13.40;;;;;-0.50;97533.00;;;;111748;1243;40913;-68
2022/01/08 04:29:05;;;;;;;27.30;13.90;;;;;-0.50;97528.60;;;;111746;1241;41679;-67
2022/01/08 04:31:34;;;;;;;27.90;13.90;;;;;-0.50;97526.20;;;;111788;1241;41808;-66
2022/01/08 04:34:04;;;;;;;29.60;13.70;;;;;-0.46;97525.60;;;;111775;1242;41137;-69
2022/01/08 04:36:34;;;;;;;21.50;11.30;;;;;-0.40;97525.00;;;;111739;1241;41884;-67
2022/01/08 04:39:03;;;;;;;19.90;9.30;;;;;-0.40;97536.00;;;;111530;1244;41638;-67
2022/01/08 04:41:33;;;;;;;19.30;8.90;;;;;-0.40;97533.00;;;;111738;1241;42134;-69
2022/01/08 04:44:06;;;;;;;19.00;8.90;;;;;-0.32;97528.40;;;;111716;1241;41397;-67
2022/01/08 04:46:38;;;;;;;17.70;8.70;;;;;-0.30;97527.20;;;;111581;1241;41606;-68
2022/01/08 04:49:10;;;;;;;18.60;9.20;;;;;-0.30;97531.60;;;;111690;1241;41159;-64
2022/01/08 04:51:44;;;;;;;19.80;8.70;;;;;-0.30;97525.00;;;;111490;1243;41279;-67
2022/01/08 04:54:14;;;;;;;26.70;12.60;;;;;-0.22;97517.60;;;;111744;1241;41259;-69
2022/01/08 04:56:44;;;;;;;27.00;13.00;;;;;-0.20;97515.00;;;;111592;1243;41262;-68
2022/01/08 04:59:16;;;;;;;27.10;13.40;;;;;-0.20;97517.60;;;;111549;1243;41263;-70
2022/01/08 05:01:46;;;;;;;27.50;14.00;;;;;-0.20;97517.60;;;;111919;1241;42284;-70
2022/01/08 05:04:16;;;;;;;30.20;13.50;;;;;-0.20;97510.20;;;;111942;1241;41141;-69
2022/01/08 05:06:45;;;;;;;28.00;12.60;;;;;-0.20;97507.40;;;;111901;1241;41111;-69
2022/01/08 05:09:14;;;;;;;28.50;11.70;;;;;-0.20;97505.80;;;;111462;1244;41267;-70
2022/01/08 05:11:44;;;;;;;20.90;10.30;;;;;-0.20;97507.00;;;;111703;1241;41191;-68
2022/01/08 05:14:13;;;;;;;19.90;9.40;;;;;-0.20;97507.40;;;;111721;1241;41177;-65
2022/01/08 05:16:44;;;;;;;19.40;8.90;;;;;-0.12;97511.20;;;;111767;1241;41707;-67
2022/01/08 05:19:22;;;;;;;21.10;9.40;;;;;-0.10;97498.60;;;;111835;1241;41282;-63
2022/01/08 05:21:57;;;;;;;20.10;9.10;;;;;-0.10;97500.80;;;;111828;1241;41589;-66
2022/01/08 05:24:27;;;;;;;16.80;8.30;;;;;-0.02;97501.60;;;;111813;1241;41793;-67
2022/01/08 05:26:57;;;;;;;16.20;8.00;;;;;0.00;97500.00;;;;111671;1242;41133;-67
2022/01/08 05:29:27;;;;;;;20.30;9.40;;;;;0.00;97500.20;;;;111836;1241;41945;-67
2022/01/08 05:31:57;;;;;;;16.80;8.70;;;;;0.04;97495.40;;;;111844;1241;41304;-67
2022/01/08 05:34:27;;;;;;;19.30;9.40;;;;;0.10;97498.40;;;;111773;1241;41343;-68
2022/01/08 05:36:57;;;;;;;18.50;8.80;;;;;0.10;97503.20;;;;111515;1244;41945;-67
2022/01/08 05:39:26;;;;;;;18.50;9.70;;;;;0.10;97496.80;;;;111668;1241;41297;-66
2022/01/08 05:41:56;;;;;;;22.10;9.70;;;;;0.10;97497.60;;;;111584;1242;41227;-66
2022/01/08 05:44:26;;;;;;;25.50;12.00;;;;;0.10;97498.60;;;;111825;1241;41165;-68
2022/01/08 05:46:56;;;;;;;31.60;14.40;;;;;0.12;97491.40;;;;111838;1241;41132;-66
2022/01/08 05:49:25;;;;;;;34.50;15.70;;;;;0.12;97494.40;;;;111894;1243;41013;-68
2022/01/08 05:51:55;;;;;;;34.20;16.20;;;;;0.10;97497.60;;;;111550;1241;41120;-69
2022/01/08 05:54:25;;;;;;;33.10;14.90;;;;;0.10;97500.20;;;;111957;1241;41140;-68
2022/01/08 05:56:55;;;;;;;30.00;14.70;;;;;0.10;97499.60;;;;111790;1241;41936;-68
2022/01/08 05:59:26;;;;;;;28.20;13.10;;;;;0.16;97502.60;;;;111893;1241;42455;-68
2022/01/08 06:01:56;;;;;;;30.70;14.60;;;;;0.14;97501.60;;;;111801;1241;41161;-68
2022/01/08 06:04:26;;;;;;;23.10;11.70;;;;;0.18;97497.60;;;;111915;1241;41121;-67
2022/01/08 06:06:55;;;;;;;22.70;11.60;;;;;0.20;97504.40;;;;111795;1241;41384;-71
2022/01/08 06:09:25;;;;;;;23.30;10.50;;;;;0.20;97504.40;;;;111738;1241;42230;-70
2022/01/08 06:11:54;;;;;;;26.30;12.40;;;;;0.20;97503.80;;;;111839;1241;41116;-66
2022/01/08 06:14:24;;;;;;;26.70;12.00;;;;;0.24;97507.60;;;;111882;1241;41662;-68
2022/01/08 06:16:54;;;;;;;24.20;12.40;;;;;0.30;97501.40;;;;111618;1241;41603;-68
2022/01/08 06:19:23;;;;;;;26.90;13.00;;;;;0.30;97507.80;;;;111787;1241;41425;-67
2022/01/08 06:21:53;;;;;;;28.00;13.00;;;;;0.36;97503.00;;;;111407;1241;41344;-68
2022/01/08 06:24:22;;;;;;;28.40;13.60;;;;;0.40;97494.20;;;;111820;1241;42350;-68
2022/01/08 06:26:52;;;;;;;31.30;13.50;;;;;0.40;97496.80;;;;111889;1241;41386;-68
2022/01/08 06:29:22;;;;;;;26.20;13.90;;;;;0.42;97490.80;;;;111810;1241;42317;-68
2022/01/08 06:31:53;;;;;;;25.40;12.20;;;;;0.50;97489.60;;;;111692;1241;41203;-68
2022/01/08 06:34:22;;;;;;;25.60;13.00;;;;;0.50;97488.40;;;;111472;1243;41142;-68
2022/01/08 06:36:52;;;;;;;25.10;13.30;;;;;0.50;97488.60;;;;111829;1241;41598;-67
2022/01/08 06:39:21;;;;;;;27.00;13.40;;;;;0.56;97487.20;;;;111972;1241;41179;-67
2022/01/08 06:41:50;;;;;;;27.30;13.80;;;;;0.60;97487.40;;;;111771;1241;42521;-68
2022/01/08 06:44:19;;;;;;;25.10;12.60;;;;;0.60;97482.60;;;;111743;1241;41244;-65
2022/01/08 06:46:49;;;;;;;28.30;13.80;;;;;0.70;97477.60;;;;111835;1241;42348;-67
2022/01/08 06:49:18;;;;;;;25.50;12.90;;;;;0.70;97478.20;;;;111763;1241;41621;-68
2022/01/08 06:51:48;;;;;;;28.70;13.20;;;;;0.80;97481.20;;;;111792;1241;41718;-69
2022/01/08 06:54:17;;;;;;;28.70;13.70;;;;;0.82;97475.00;;;;111776;1243;43222;-68
2022/01/08 06:56:46;;;;;;;29.50;14.20;;;;;0.90;97477.80;;;;111550;1244;42151;-68
2022/01/08 06:59:16;;;;;;;26.20;13.10;;;;;0.90;97470.60;;;;111749;1243;41375;-68
2022/01/08 07:01:46;;;;;;;24.60;13.10;;;;;1.00;97474.80;;;;111421;1243;42646;-69
2022/01/08 07:04:15;;;;;;;29.30;15.70;;;;;1.00;97475.00;;;;111357;1244;42260;-67
2022/01/08 07:06:44;;;;;;;31.80;15.50;;;;;1.00;97482.60;;;;111797;1242;41157;-67
2022/01/08 07:09:13;;;;;;;32.30;16.20;;;;;0.96;97480.00;;;;111780;1239;41233;-67
2022/01/08 07:11:42;;;;;;;37.50;19.60;;;;;1.00;97485.20;;;;111686;1242;42203;-68
2022/01/08 07:14:11;;;;;;;37.60;18.40;;;;;0.98;97485.60;;;;111484;1244;41704;-69
2022/01/08 07:16:41;;;;;;;39.40;20.20;;;;;0.90;97483.20;;;;111514;1244;41136;-68
2022/01/08 07:19:10;;;;;;;34.00;18.50;;;;;0.90;97492.80;;;;111797;1242;41726;-67
2022/01/08 07:21:40;;;;;;;31.70;16.10;;;;;0.90;97491.20;;;;111718;1241;41149;-67
2022/01/08 07:24:09;;;;;;;33.30;17.30;;;;;0.90;97485.40;;;;111746;1242;41127;-67
2022/01/08 07:26:38;;;;;;;32.60;15.40;;;;;0.98;97480.40;;;;111712;1242;41245;-68
2022/01/08 07:29:07;;;;;;;28.70;15.00;;;;;1.00;97474.80;;;;111715;1241;42560;-70
2022/01/08 07:31:37;;;;;;;32.80;16.90;;;;;1.10;97475.20;;;;111917;1242;41915;-67
2022/01/08 07:34:06;;;;;;;33.40;16.50;;;;;1.10;97467.20;;;;111664;1243;41618;-68
2022/01/08 07:36:35;;;;;;;31.20;16.40;;;;;1.20;97468.00;;;;111753;1241;41233;-67
2022/01/08 07:39:04;;;;;;;32.50;16.20;;;;;1.24;97457.80;;;;111755;1241;41135;-70
2022/01/08 07:41:33;;;;;;;30.00;15.40;;;;;1.34;97453.40;;;;111732;1242;41169;-68
2022/01/08 07:44:02;;;;;;;27.40;14.30;;;;;1.44;97451.00;;;;111751;1241;41253;-67
2022/01/08 07:46:31;;;;;;;28.40;15.60;;;;;1.56;97452.00;;;;111447;1243;42005;-65
2022/01/08 07:49:00;;;;;;;30.20;15.40;;;;;1.62;97446.80;;;;111769;1241;41127;-67
2022/01/08 07:51:29;;;;;;;30.50;16.00;;;;;1.70;97446.60;;;;111764;1241;41360;-69
2022/01/08 07:53:58;;;;;;;28.50;15.70;;;;;1.78;97449.00;;;;111757;1241;41251;-66
2022/01/08 07:56:27;;;;;;;31.80;17.10;;;;;1.80;97444.80;;;;111732;1243;41592;-67
2022/01/08 07:58:56;;;;;;;31.30;15.90;;;;;1.90;97442.20;;;;111709;1241;41215;-67
2022/01/08 08:01:25;;;;;;;36.60;16.60;;;;;2.00;97441.80;;;;111782;1241;41848;-66
2022/01/08 08:03:54;;;;;;;30.30;17.10;;;;;2.02;97442.40;;;;111756;1241;41858;-66
2022/01/08 08:06:24;;;;;;;31.80;16.90;;;;;2.10;97440.00;;;;111719;1241;41896;-68
2022/01/08 08:08:53;;;;;;;32.90;17.70;;;;;2.12;97439.00;;;;111629;1241;41146;-69
2022/01/08 08:11:22;;;;;;;33.10;17.70;;;;;2.20;97437.60;;;;111756;1242;41314;-69
2022/01/08 08:13:50;;;;;;;33.50;16.60;;;;;2.16;97434.80;;;;111850;1241;41213;-69
2022/01/08 08:16:20;;;;;;;32.80;16.10;;;;;2.20;97433.40;;;;111706;1241;41754;-69
2022/01/08 08:18:49;;;;;;;33.60;16.50;;;;;2.20;97423.40;;;;111759;1241;41527;-68
2022/01/08 08:21:18;;;;;;;26.70;13.90;;;;;2.26;97422.80;;;;111792;1241;41158;-66
2022/01/08 08:23:48;;;;;;;19.90;10.30;;;;;2.30;97416.40;;;;111760;1241;42169;-66
2022/01/08 08:26:17;;;;;;;45.50;22.90;;;;;2.40;97419.80;;;;111783;1241;42026;-66
2022/01/08 08:28:46;;;;;;;45.70;24.30;;;;;2.50;97417.20;;;;111766;1244;41371;-67
2022/01/08 08:31:15;;;;;;;50.20;25.00;;;;;2.56;97417.20;;;;111777;1242;41369;-66
2022/01/08 08:33:44;;;;;;;43.40;22.50;;;;;2.60;97409.80;;;;111646;1241;41136;-65
2022/01/08 08:36:14;;;;;;;40.90;22.10;;;;;2.60;97408.40;;;;111419;1243;41172;-66
2022/01/08 08:38:43;;;;;;;39.40;21.00;;;;;2.70;97408.40;;;;111712;1243;41278;-70
2022/01/08 08:41:12;;;;;;;42.70;19.70;;;;;2.70;97405.80;;;;111773;1243;41647;-68
2022/01/08 08:43:41;;;;;;;37.30;17.20;;;;;2.70;97403.00;;;;111783;1241;42374;-68
2022/01/08 08:46:10;;;;;;;38.20;16.70;;;;;2.72;97400.40;;;;111801;1241;42359;-69
2022/01/08 08:48:39;;;;;;;39.10;18.30;;;;;2.80;97400.20;;;;111545;1243;41136;-68
2022/01/08 08:51:08;;;;;;;34.40;17.20;;;;;2.80;97400.00;;;;111593;1243;41137;-68
2022/01/08 08:53:38;;;;;;;33.40;17.20;;;;;2.90;97392.60;;;;111519;1243;41122;-71
2022/01/08 08:56:06;;;;;;;37.80;18.20;;;;;2.86;97396.40;;;;111774;1241;41587;-69
2022/01/08 08:58:36;;;;;;;37.90;20.50;;;;;2.90;97388.60;;;;111801;1243;41143;-69
2022/01/08 09:01:05;;;;;;;29.80;15.60;;;;;3.10;97385.00;;;;111092;1243;633610;-66
2022/01/08 09:03:34;;;;;;;24.20;12.90;;;;;3.34;97378.00;;;;111561;1243;41129;-68
2022/01/08 09:06:03;;;;;;;22.00;10.60;;;;;3.70;97374.80;;;;111582;1244;41170;-69
2022/01/08 09:08:32;;;;;;;19.50;9.20;;;;;4.00;97372.40;;;;111830;1241;41139;-68
2022/01/08 09:11:01;;;;;;;21.20;9.50;;;;;4.32;97368.00;;;;111850;1241;41146;-69
2022/01/08 09:13:31;;;;;;;25.70;13.60;;;;;4.60;97357.40;;;;111802;1241;41130;-66
2022/01/08 09:16:00;;;;;;;27.60;15.00;;;;;4.90;97358.80;;;;111716;1241;41128;-67
2022/01/08 09:18:29;;;;;;;30.30;15.60;;;;;5.10;97358.60;;;;111891;1241;41168;-68
2022/01/08 09:20:59;;;;;;;28.40;15.20;;;;;5.30;97356.80;;;;111843;1241;41609;-66
2022/01/08 09:23:28;;;;;;;27.50;15.00;;;;;5.50;97348.80;;;;111728;1241;41650;-66
2022/01/08 09:25:58;;;;;;;23.50;12.50;;;;;5.70;97344.20;;;;111803;1241;41124;-67
2022/01/08 09:28:30;;;;;;;28.20;14.60;;;;;5.90;97343.80;;;;111857;1241;41123;-68
2022/01/08 09:31:01;;;;;;;30.20;14.40;;;;;6.10;97343.00;;;;111720;1241;41388;-69
2022/01/08 09:33:31;;;;;;;20.70;11.40;;;;;6.36;97336.40;;;;111541;1243;41130;-69
2022/01/08 09:36:00;;;;;;;22.00;10.80;;;;;6.62;97335.60;;;;111864;1241;41136;-69
2022/01/08 09:38:30;;;;;;;21.90;10.80;;;;;6.90;97324.40;;;;111871;1241;42160;-69
2022/01/08 09:40:59;;;;;;;23.90;12.50;;;;;7.10;97325.20;;;;111869;1241;41601;-69
2022/01/08 09:43:28;;;;;;;21.00;10.60;;;;;7.20;97324.00;;;;111878;1241;41141;-68
2022/01/08 09:45:58;;;;;;;23.10;12.00;;;;;7.40;97314.40;;;;111846;1241;41329;-69
2022/01/08 09:48:27;;;;;;;22.20;11.20;;;;;7.50;97312.20;;;;111571;1241;41179;-69
2022/01/08 09:50:56;;;;;;;20.70;11.10;;;;;7.72;97317.40;;;;111769;1241;41610;-69
2022/01/08 09:53:25;;;;;;;21.20;10.30;;;;;8.10;97307.40;;;;111794;1243;41362;-69
2022/01/08 09:55:54;;;;;;;23.30;11.50;;;;;8.54;97300.80;;;;111860;1241;41373;-70
2022/01/08 09:58:23;;;;;;;20.20;10.40;;;;;9.04;97291.80;;;;111761;1241;41933;-70
2022/01/08 10:00:52;;;;;;;20.40;10.50;;;;;9.52;97283.80;;;;111868;1241;42070;-72
2022/01/08 10:03:26;;;;;;;23.10;12.10;;;;;10.06;97276.80;;;;111856;1241;41123;-70
2022/01/08 10:05:59;;;;;;;19.90;9.90;;;;;10.94;97269.80;;;;111836;1241;41349;-71
2022/01/08 10:08:43;;;;;;;15.20;8.40;;;;;12.14;97266.40;;;;111776;1243;41252;-72
2022/01/08 10:11:14;;;;;;;;;;;;;13.12;97257.20;;;;111783;1241;41686;-69
2022/01/08 10:13:45;;;;;;;15.40;7.90;;;;;13.80;97254.00;;;;111780;1241;41526;-73
2022/01/08 10:19:18;;;;;;;17.30;9.30;;;;;14.62;97242.40;;;;111759;1241;41135;-71
2022/01/08 10:21:48;;;;;;;15.30;7.90;;;;;14.80;97236.60;;;;111755;1241;41260;-72
2022/01/08 10:24:24;;;;;;;12.80;6.40;;;;;15.20;97233.80;;;;111495;1241;41626;-69
2022/01/08 10:27:04;;;;;;;14.00;7.10;;;;;16.10;97230.40;;;;111785;1241;41123;-69
2022/01/08 10:29:34;;;;;;;13.40;6.40;;;;;16.80;97236.00;;;;111794;1242;41254;-69
2022/01/08 10:32:07;;;;;;;12.30;6.10;;;;;16.72;97229.40;;;;111798;1241;41249;-69
2022/01/08 10:34:37;;;;;;;12.60;5.80;;;;;16.46;97229.80;;;;111806;1242;41127;-69
2022/01/08 10:37:07;;;;;;;13.40;6.00;;;;;16.00;97232.80;;;;111816;1241;41364;-69
2022/01/08 10:39:40;;;;;;;12.60;6.10;;;;;15.36;97231.60;;;;111817;1241;41727;-64
2022/01/08 10:42:15;;;;;;;12.80;6.00;;;;;14.76;97234.20;;;;111803;1243;41143;-69
2022/01/08 10:44:47;;;;;;;13.20;6.40;;;;;14.04;97227.60;;;;111867;1241;42838;-69
2022/01/08 10:47:20;;;;;;;15.30;7.30;;;;;13.40;97225.00;;;;111838;1241;41143;-69
2022/01/08 10:50:06;;;;;;;13.30;6.90;;;;;12.76;97224.40;;;;111918;1241;41170;-70
2022/01/08 10:52:48;;;;;;;14.80;7.50;;;;;12.12;97219.80;;;;111776;1243;41126;-71
2022/01/08 10:55:30;;;;;;;14.60;7.50;;;;;11.68;97217.40;;;;111873;1241;41533;-72
2022/01/08 10:57:59;;;;;;;17.40;8.60;;;;;11.30;97212.20;;;;111847;1241;41242;-70
2022/01/08 11:00:32;;;;;;;14.70;7.30;;;;;11.00;97214.20;;;;111828;1241;41238;-72
2022/01/08 11:03:01;;;;;;;14.90;7.00;;;;;10.60;97203.60;;;;111774;1242;41141;-71
2022/01/08 11:05:31;;;;;;;13.80;6.30;;;;;10.30;97202.00;;;;111706;1243;41943;-71
2022/01/08 11:08:15;;;;;;;15.70;7.00;;;;;10.00;97213.00;;;;111485;1243;42235;-72
2022/01/08 11:10:44;;;;;;;14.90;6.40;;;;;9.80;97204.80;;;;111816;1242;42180;-72
2022/01/08 11:13:15;;;;;;;16.10;6.80;;;;;9.50;97197.60;;;;111366;1244;41258;-71
2022/01/08 11:15:51;;;;;;;13.70;6.20;;;;;9.40;97202.20;;;;111527;1244;41443;-70
2022/01/08 11:18:21;;;;;;;13.00;5.90;;;;;9.20;97191.20;;;;111698;1242;41589;-71
2022/01/08 11:20:56;;;;;;;14.80;7.00;;;;;9.10;97192.00;;;;111500;1244;42112;-72
2022/01/08 11:23:26;;;;;;;14.30;6.80;;;;;9.00;97194.40;;;;111837;1241;41255;-70
2022/01/08 11:25:56;;;;;;;13.40;6.60;;;;;9.00;97201.40;;;;111664;1243;41282;-71
2022/01/08 11:28:34;;;;;;;13.80;6.20;;;;;9.00;97206.60;;;;111711;1241;41190;-71
2022/01/08 11:31:06;;;;;;;14.50;6.70;;;;;9.18;97211.60;;;;111745;1241;41467;-67
2022/01/08 11:33:37;;;;;;;14.30;6.70;;;;;9.50;97204.40;;;;111459;1241;41309;-72
2022/01/08 11:36:06;;;;;;;23.80;13.20;;;;;10.04;97195.80;;;;111534;1241;41150;-70
2022/01/08 11:38:36;;;;;;;23.00;12.70;;;;;10.64;97182.80;;;;111520;1243;41156;-70
2022/01/08 11:41:05;;;;;;;17.90;9.40;;;;;11.50;97179.20;;;;111574;1244;41247;-71
2022/01/08 11:43:36;;;;;;;14.80;8.00;;;;;11.92;97182.80;;;;111793;1241;41584;-71
2022/01/08 11:46:07;;;;;;;15.20;8.50;;;;;12.18;97180.00;;;;111824;1241;41139;-70
2022/01/08 11:48:48;;;;;;;16.40;8.80;;;;;12.24;97172.00;;;;111737;1241;42431;-70
2022/01/08 11:51:24;;;;;;;19.60;10.20;;;;;12.20;97164.60;;;;111772;1243;41203;-70
2022/01/08 11:54:00;;;;;;;18.00;9.70;;;;;11.92;97158.00;;;;111737;1241;41137;-71
2022/01/08 11:56:33;;;;;;;18.80;9.60;;;;;11.70;97158.80;;;;111830;1243;41117;-70
2022/01/08 11:59:24;;;;;;;15.40;7.30;;;;;11.40;97147.20;;;;111583;1241;41501;-71
2022/01/08 12:02:06;;;;;;;;;;;;;11.20;97141.20;;;;111849;1241;41611;-71
2022/01/08 12:04:35;;;;;;;15.20;7.50;;;;;11.10;97146.00;;;;111854;1241;42404;-72
2022/01/08 12:07:30;;;;;;;29.10;13.90;;;;;11.10;97135.60;;;;111814;1241;41579;-72
2022/01/08 12:10:12;;;;;;;30.50;15.50;;;;;11.30;97135.60;;;;111705;1241;41884;-72
2022/01/08 12:12:47;;;;;;;23.70;11.40;;;;;11.46;97132.20;;;;111509;1244;41138;-69
2022/01/08 12:15:18;;;;;;;19.00;9.20;;;;;11.60;97129.80;;;;111745;1241;41363;-69
2022/01/08 12:17:52;;;;;;;19.50;8.20;;;;;11.50;97126.40;;;;111707;1243;41434;-70
2022/01/08 12:20:53;;;;;;;15.70;8.40;;;;;11.50;97124.20;;;;111824;1241;41143;-72
2022/01/08 12:23:23;;;;;;;16.50;8.50;;;;;11.40;97112.20;;;;111927;1241;41149;-73
2022/01/08 12:25:52;;;;;;;12.80;6.70;;;;;11.24;97104.60;;;;111896;1243;41251;-72
2022/01/08 12:28:41;;;;;;;14.40;6.60;;;;;11.00;97097.60;;;;111805;1243;42374;-72
2022/01/08 12:31:32;;;;;;;28.80;16.20;;;;;10.90;97101.80;;;;111855;1241;41512;-71
2022/01/08 12:34:30;;;;;;;94.90;46.10;;;;;10.80;97106.80;;;;111847;1241;41446;-73
2022/01/08 12:37:03;;;;;;;77.20;42.10;;;;;10.70;97112.00;;;;111858;1243;41594;-72
2022/01/08 12:39:41;;;;;;;48.70;28.30;;;;;10.50;97112.00;;;;111751;1241;42125;-71